Time;durP1;ratioP1;P1;durP2;ratioP2;P2;SDS_P1;SDS_P2;PMS_P1;PMS_P2;Temp;Humidity;BMP_temperature;BMP_pressure;BME280_temperature;BME280_humidity;BME280_pressure;Samples;Min_cycle;Max_cycle;Signal;HPM_P1;HPM_P2
2023/06/17 00:00:28;;;;;;;11.82;5.90;;;16.80;99.90;;;;;;5091063;27;20397;-69
2023/06/17 00:02:53;;;;;;;10.68;6.00;;;16.80;99.90;;;;;;5102208;27;20190;-74
2023/06/17 00:05:21;;;;;;;9.07;6.57;;;16.80;99.90;;;;;;5104837;27;20042;-72
2023/06/17 00:07:46;;;;;;;12.00;6.50;;;16.80;99.90;;;;;;5087433;27;21045;-71
2023/06/17 00:10:12;;;;;;;10.25;6.38;;;16.80;99.90;;;;;;5105539;27;20134;-72
2023/06/17 00:12:38;;;;;;;14.80;6.75;;;16.80;99.90;;;;;;5101048;27;20085;-71
2023/06/17 00:15:07;;;;;;;11.93;7.20;;;16.70;99.90;;;;;;5104964;27;20043;-72
2023/06/17 00:17:44;;;;;;;11.25;7.47;;;16.70;99.90;;;;;;5103303;27;20049;-70
2023/06/17 00:20:14;;;;;;;12.70;7.63;;;16.80;99.90;;;;;;5088143;27;20051;-71
2023/06/17 00:22:43;;;;;;;10.77;7.15;;;16.70;99.90;;;;;;5069845;27;20047;-70
2023/06/17 00:25:13;;;;;;;12.68;7.22;;;16.70;99.90;;;;;;5103792;27;20501;-71
2023/06/17 00:27:45;;;;;;;10.90;7.45;;;16.70;99.90;;;;;;5104118;27;20431;-71
2023/06/17 00:30:11;;;;;;;12.88;7.72;;;16.70;99.90;;;;;;5105449;27;20043;-70
2023/06/17 00:32:37;;;;;;;12.13;7.60;;;16.70;99.90;;;;;;5097588;27;20035;-72
2023/06/17 00:35:05;;;;;;;11.85;7.20;;;16.70;99.90;;;;;;5088718;27;20890;-70
2023/06/17 00:37:32;;;;;;;17.17;7.30;;;16.70;99.90;;;;;;5089578;27;20046;-74
2023/06/17 00:39:58;;;;;;;12.30;7.00;;;16.70;99.90;;;;;;5095268;27;20401;-70
2023/06/17 00:42:24;;;;;;;12.48;7.30;;;16.70;99.90;;;;;;5085806;27;20059;-73
2023/06/17 00:44:49;;;;;;;11.25;7.35;;;16.70;99.90;;;;;;5093454;27;20079;-71
2023/06/17 00:47:15;;;;;;;13.27;6.93;;;16.70;99.90;;;;;;5089650;27;20135;-73
2023/06/17 00:49:44;;;;;;;12.63;8.43;;;16.60;99.90;;;;;;5084551;27;20061;-72
2023/06/17 00:52:11;;;;;;;12.40;7.60;;;16.60;99.90;;;;;;5110605;27;20070;-71
2023/06/17 00:54:39;;;;;;;11.40;7.15;;;16.60;99.90;;;;;;5067361;27;20047;-70
2023/06/17 00:57:09;;;;;;;12.52;7.97;;;16.60;99.90;;;;;;5067705;27;20440;-72
2023/06/17 00:59:38;;;;;;;10.35;7.03;;;16.60;99.90;;;;;;5088405;27;20142;-71
2023/06/17 01:02:06;;;;;;;13.45;7.20;;;16.60;99.90;;;;;;5109321;27;20399;-71
2023/06/17 01:04:32;;;;;;;12.25;7.60;;;16.60;99.90;;;;;;5080663;27;20176;-71
2023/06/17 01:07:01;;;;;;;15.10;7.75;;;16.60;99.90;;;;;;5104286;27;20385;-72
2023/06/17 01:09:43;;;;;;;11.15;7.25;;;16.50;99.90;;;;;;5108488;27;20077;-73
2023/06/17 01:12:12;;;;;;;10.15;7.20;;;16.60;99.90;;;;;;5108901;27;20046;-73
2023/06/17 01:14:40;;;;;;;13.05;7.63;;;16.50;99.90;;;;;;5089937;27;20565;-70
2023/06/17 01:17:10;;;;;;;15.60;7.57;;;16.50;99.90;;;;;;5107280;27;20042;-71
2023/06/17 01:19:38;;;;;;;10.73;7.20;;;16.40;99.90;;;;;;5080990;27;20106;-74
2023/06/17 01:22:08;;;;;;;11.95;7.22;;;16.40;99.90;;;;;;5094026;27;20073;-71
2023/06/17 01:24:36;;;;;;;13.82;8.00;;;16.40;99.90;;;;;;5108832;27;20074;-71
2023/06/17 01:27:04;;;;;;;13.05;8.02;;;16.40;99.90;;;;;;5109392;27;20055;-72
2023/06/17 01:29:32;;;;;;;13.30;7.40;;;16.40;99.90;;;;;;5073842;27;20129;-70
2023/06/17 01:31:59;;;;;;;10.43;7.60;;;16.40;99.90;;;;;;5106682;27;20114;-71
2023/06/17 01:34:55;;;;;;;14.30;7.93;;;16.40;99.90;;;;;;5107955;27;20047;-74
2023/06/17 01:37:29;;;;;;;12.65;7.80;;;16.40;99.90;;;;;;5105534;27;20153;-71
2023/06/17 01:39:57;;;;;;;10.23;7.28;;;16.30;99.90;;;;;;5106237;27;20059;-72
2023/06/17 01:42:31;;;;;;;14.27;8.35;;;16.30;99.90;;;;;;5106708;27;20039;-70
2023/06/17 01:45:01;;;;;;;11.23;7.20;;;16.30;99.90;;;;;;5091578;27;20042;-72
2023/06/17 01:47:27;;;;;;;16.08;8.57;;;16.30;99.90;;;;;;5105680;27;20050;-72
2023/06/17 01:49:58;;;;;;;14.40;9.05;;;16.30;99.90;;;;;;5095486;27;20393;-71
2023/06/17 01:52:25;;;;;;;15.48;8.75;;;16.30;99.90;;;;;;5105019;27;20058;-72
2023/06/17 01:54:51;;;;;;;11.93;7.85;;;16.30;99.90;;;;;;5106665;27;20031;-71
2023/06/17 01:57:17;;;;;;;16.88;9.00;;;16.30;99.90;;;;;;5108313;27;20396;-71
2023/06/17 01:59:43;;;;;;;12.80;8.40;;;16.30;99.90;;;;;;5106732;27;20054;-74
2023/06/17 02:02:09;;;;;;;10.73;7.55;;;16.30;99.90;;;;;;5088594;27;20188;-74
2023/06/17 02:04:35;;;;;;;14.93;8.50;;;16.40;99.90;;;;;;5105946;27;20038;-71
2023/06/17 02:07:06;;;;;;;16.45;8.48;;;16.30;99.90;;;;;;5050228;27;20072;-71
2023/06/17 02:09:32;;;;;;;13.70;8.48;;;16.30;99.90;;;;;;5085105;27;20092;-71
2023/06/17 02:11:58;;;;;;;17.65;8.55;;;16.20;99.90;;;;;;5083291;27;20047;-73
2023/06/17 02:14:24;;;;;;;12.98;8.10;;;16.20;99.90;;;;;;5089778;27;20865;-72
2023/06/17 02:16:52;;;;;;;12.88;7.70;;;16.20;99.90;;;;;;5090784;27;20045;-72
2023/06/17 02:19:18;;;;;;;15.85;9.02;;;16.20;99.90;;;;;;5085545;27;20537;-71
2023/06/17 02:21:43;;;;;;;15.95;8.85;;;16.20;99.90;;;;;;5079702;27;20073;-71
2023/06/17 02:24:12;;;;;;;15.63;8.82;;;16.20;99.90;;;;;;5091883;27;20043;-71
2023/06/17 02:26:40;;;;;;;12.27;8.90;;;16.20;99.90;;;;;;5087581;27;20095;-72
2023/06/17 02:29:06;;;;;;;13.00;8.20;;;16.20;99.90;;;;;;5079671;27;20108;-71
2023/06/17 02:31:35;;;;;;;12.43;8.93;;;16.20;99.90;;;;;;5124007;27;20587;-72
2023/06/17 02:34:01;;;;;;;13.20;8.98;;;16.20;99.90;;;;;;5105826;27;20059;-71
2023/06/17 02:36:27;;;;;;;15.82;9.00;;;16.20;99.90;;;;;;5104781;27;20051;-71
2023/06/17 02:38:53;;;;;;;14.63;9.35;;;16.20;99.90;;;;;;5087295;27;20398;-74
2023/06/17 02:41:19;;;;;;;15.52;9.55;;;16.30;99.90;;;;;;5096447;27;20478;-71
2023/06/17 02:43:45;;;;;;;20.95;10.27;;;16.10;99.90;;;;;;5087626;27;20047;-73
2023/06/17 02:46:11;;;;;;;12.63;9.70;;;16.30;99.90;;;;;;5105079;27;20074;-72
2023/06/17 02:48:37;;;;;;;14.52;10.27;;;16.30;99.90;;;;;;5104100;27;20042;-72
2023/06/17 02:51:04;;;;;;;14.73;10.77;;;16.40;99.90;;;;;;5089107;27;20055;-72
2023/06/17 02:53:30;;;;;;;14.93;9.57;;;16.40;99.90;;;;;;5073883;27;20043;-71
2023/06/17 02:55:57;;;;;;;13.77;9.63;;;16.40;99.90;;;;;;5099801;27;20051;-73
2023/06/17 02:58:25;;;;;;;14.73;10.10;;;16.40;99.90;;;;;;5106750;27;20073;-72
2023/06/17 03:00:54;;;;;;;13.65;9.48;;;16.40;99.90;;;;;;5085341;27;20053;-72
2023/06/17 03:03:26;;;;;;;17.95;10.50;;;16.50;99.90;;;;;;5087211;27;20423;-73
2023/06/17 03:05:52;;;;;;;14.27;10.07;;;16.50;99.90;;;;;;5106826;27;21210;-71
2023/06/17 03:08:18;;;;;;;15.88;10.07;;;16.50;99.90;;;;;;5091176;27;20549;-71
2023/06/17 03:10:44;;;;;;;12.07;9.13;;;16.50;99.90;;;;;;5071396;27;20950;-74
2023/06/17 03:13:11;;;;;;;17.45;9.70;;;16.60;99.90;;;;;;5086283;27;20035;-70
2023/06/17 03:15:37;;;;;;;15.98;9.88;;;16.60;99.90;;;;;;5105753;27;20047;-71
2023/06/17 03:18:03;;;;;;;10.75;8.68;;;16.60;99.90;;;;;;5105276;27;20054;-70
2023/06/17 03:20:29;;;;;;;14.93;10.02;;;16.60;99.90;;;;;;5085635;27;20103;-70
2023/06/17 03:22:55;;;;;;;13.82;8.73;;;16.60;99.90;;;;;;5101260;27;20051;-73
2023/06/17 03:25:22;;;;;;;13.95;9.40;;;17.20;99.90;;;;;;5102480;27;20043;-70
2023/06/17 03:27:48;;;;;;;12.57;8.43;;;16.70;99.90;;;;;;5090053;27;20493;-70
2023/06/17 03:30:15;;;;;;;11.90;8.30;;;16.70;99.90;;;;;;5123612;27;20038;-71
2023/06/17 03:32:41;;;;;;;12.32;8.73;;;17.00;99.90;;;;;;5081712;27;20272;-73
2023/06/17 03:35:07;;;;;;;11.98;8.70;;;16.70;99.90;;;;;;5084020;27;20477;-73
2023/06/17 03:37:33;;;;;;;14.63;8.82;;;16.80;99.90;;;;;;5087313;27;20107;-70
2023/06/17 03:40:06;;;;;;;14.57;9.45;;;16.70;99.90;;;;;;5106257;27;20148;-70
2023/06/17 03:42:36;;;;;;;16.80;9.13;;;16.70;99.90;;;;;;5103843;27;20702;-71
2023/06/17 03:45:08;;;;;;;13.90;8.88;;;16.70;99.90;;;;;;5085494;27;20043;-77
2023/06/17 03:47:34;;;;;;;12.00;9.73;;;16.70;99.90;;;;;;5101467;27;20043;-74
2023/06/17 03:50:00;;;;;;;16.08;8.75;;;16.70;99.90;;;;;;5104032;27;20050;-73
2023/06/17 03:52:26;;;;;;;12.18;9.20;;;16.70;99.90;;;;;;5128786;27;20061;-71
2023/06/17 03:54:53;;;;;;;12.65;8.35;;;16.70;99.90;;;;;;5080845;27;20050;-71
2023/06/17 03:57:19;;;;;;;13.60;8.85;;;16.70;99.90;;;;;;5107584;27;20689;-71
2023/06/17 03:59:46;;;;;;;11.98;8.38;;;16.70;99.90;;;;;;5103765;27;20155;-73
2023/06/17 04:02:13;;;;;;;12.73;9.18;;;16.70;99.90;;;;;;5103576;27;20483;-73
2023/06/17 04:04:39;;;;;;;14.23;9.35;;;16.70;99.90;;;;;;5065133;27;20474;-73
2023/06/17 04:07:05;;;;;;;16.08;8.43;;;16.70;99.90;;;;;;5069647;27;20510;-70
2023/06/17 04:09:31;;;;;;;14.68;8.20;;;16.70;99.90;;;;;;5103007;27;20058;-73
2023/06/17 04:12:01;;;;;;;13.73;8.10;;;16.70;99.90;;;;;;5074663;27;20096;-71
2023/06/17 04:14:27;;;;;;;14.70;8.88;;;16.70;99.90;;;;;;5102391;27;20054;-70
2023/06/17 04:16:53;;;;;;;13.23;8.85;;;16.70;99.90;;;;;;5082872;27;20044;-73
2023/06/17 04:19:19;;;;;;;13.02;8.98;;;16.80;99.90;;;;;;5104002;27;20042;-73
2023/06/17 04:21:45;;;;;;;17.20;9.18;;;16.80;99.90;;;;;;5091498;27;20563;-71
2023/06/17 04:24:11;;;;;;;12.82;8.60;;;16.90;99.90;;;;;;5088285;27;20043;-71
2023/06/17 04:26:37;;;;;;;13.10;8.68;;;16.90;99.90;;;;;;5072319;27;20054;-71
2023/06/17 04:29:04;;;;;;;14.63;8.32;;;17.00;99.90;;;;;;5108057;27;20137;-71
2023/06/17 04:31:35;;;;;;;10.55;7.97;;;16.90;99.90;;;;;;5080147;27;20182;-73
2023/06/17 04:34:01;;;;;;;11.45;8.48;;;17.00;99.90;;;;;;5089880;27;20498;-72
2023/06/17 04:36:28;;;;;;;13.98;8.93;;;16.90;99.90;;;;;;5105248;27;20045;-71
2023/06/17 04:38:54;;;;;;;10.70;7.97;;;17.00;99.90;;;;;;5089223;27;21583;-73
2023/06/17 04:41:20;;;;;;;14.40;7.88;;;17.00;99.90;;;;;;5102176;27;20043;-72
2023/06/17 04:43:48;;;;;;;13.52;8.60;;;17.00;99.90;;;;;;5079062;27;20092;-71
2023/06/17 04:46:17;;;;;;;12.88;7.93;;;16.90;99.90;;;;;;5089299;27;20063;-71
2023/06/17 04:48:43;;;;;;;12.93;8.13;;;17.00;99.90;;;;;;5107639;27;20052;-74
2023/06/17 04:51:12;;;;;;;10.25;8.10;;;17.00;99.90;;;;;;5090780;27;20051;-73
2023/06/17 04:53:39;;;;;;;11.27;7.20;;;17.00;99.90;;;;;;5105110;27;20054;-73
2023/06/17 04:56:06;;;;;;;12.25;7.80;;;16.50;99.90;;;;;;5086728;27;20456;-72
2023/06/17 04:58:33;;;;;;;11.95;8.10;;;17.00;99.90;;;;;;5086791;27;20155;-75
2023/06/17 05:01:00;;;;;;;13.20;7.50;;;17.10;99.90;;;;;;5105873;27;20070;-73
2023/06/17 05:03:26;;;;;;;14.38;7.43;;;17.10;99.90;;;;;;5090137;27;20126;-70
2023/06/17 05:05:53;;;;;;;17.98;7.60;;;17.10;99.90;;;;;;5104776;27;20043;-71
2023/06/17 05:08:19;;;;;;;14.48;7.78;;;17.10;99.90;;;;;;5105467;27;20050;-73
2023/06/17 05:10:45;;;;;;;10.77;7.57;;;17.20;99.90;;;;;;5106508;27;20450;-71
2023/06/17 05:13:11;;;;;;;11.93;7.43;;;17.20;99.90;;;;;;5091333;27;20100;-72
2023/06/17 05:15:36;;;;;;;10.43;7.13;;;16.60;99.90;;;;;;5089944;27;20118;-71
2023/06/17 05:18:02;;;;;;;15.80;7.40;;;17.30;99.90;;;;;;5069751;27;20054;-74
2023/06/17 05:20:28;;;;;;;12.50;6.82;;;17.40;99.90;;;;;;5088803;27;20055;-74
2023/06/17 05:22:55;;;;;;;15.32;7.75;;;17.40;99.90;;;;;;5084661;27;20035;-72
2023/06/17 05:25:23;;;;;;;14.45;7.20;;;17.40;99.90;;;;;;5120764;27;20068;-72
2023/06/17 05:27:51;;;;;;;13.98;6.88;;;17.50;99.90;;;;;;5084658;27;20365;-73
2023/06/17 05:30:16;;;;;;;12.30;7.13;;;17.60;99.90;;;;;;5090090;27;20959;-75
2023/06/17 05:32:42;;;;;;;10.27;6.72;;;17.70;99.90;;;;;;5087425;27;20095;-74
2023/06/17 05:35:08;;;;;;;12.95;7.20;;;17.80;99.90;;;;;;5087808;27;20119;-73
2023/06/17 05:37:33;;;;;;;15.50;7.18;;;17.80;99.90;;;;;;5075672;27;20107;-74
2023/06/17 05:39:59;;;;;;;11.32;6.70;;;17.90;99.90;;;;;;5088373;27;20046;-75
2023/06/17 05:42:25;;;;;;;12.80;7.22;;;18.00;99.90;;;;;;5105528;27;20054;-74
2023/06/17 05:44:51;;;;;;;9.73;6.20;;;18.00;99.90;;;;;;5105999;27;20108;-73
2023/06/17 05:47:16;;;;;;;9.80;6.53;;;18.10;99.90;;;;;;5078580;27;20130;-72
2023/06/17 05:49:43;;;;;;;12.43;6.60;;;18.10;99.90;;;;;;5104281;27;20086;-74
2023/06/17 05:52:10;;;;;;;12.38;6.95;;;18.20;99.90;;;;;;5089676;27;20475;-71
2023/06/17 05:54:38;;;;;;;17.50;6.53;;;18.30;99.90;;;;;;5102460;27;20567;-75
2023/06/17 05:57:05;;;;;;;11.30;6.75;;;18.30;99.90;;;;;;5119616;27;20076;-74
2023/06/17 05:59:31;;;;;;;10.73;6.57;;;18.40;99.90;;;;;;5089894;27;20073;-72
2023/06/17 06:01:57;;;;;;;13.27;7.03;;;18.30;99.90;;;;;;5105873;27;20039;-72
2023/06/17 06:04:28;;;;;;;12.65;6.10;;;18.30;99.90;;;;;;5075489;27;20146;-72
2023/06/17 06:06:54;;;;;;;11.82;6.35;;;18.30;99.90;;;;;;5105579;27;20161;-71
2023/06/17 06:09:20;;;;;;;9.52;6.30;;;18.20;99.90;;;;;;5102911;27;20035;-74
2023/06/17 06:11:46;;;;;;;11.23;7.07;;;18.20;99.90;;;;;;5104749;27;20055;-73
2023/06/17 06:14:11;;;;;;;12.93;6.47;;;18.30;99.90;;;;;;5107012;27;20107;-76
2023/06/17 06:16:37;;;;;;;10.20;7.00;;;18.20;99.90;;;;;;5100943;27;20043;-73
2023/06/17 06:19:08;;;;;;;11.60;7.03;;;18.20;99.90;;;;;;5086857;27;20162;-72
2023/06/17 06:21:34;;;;;;;13.25;7.07;;;18.30;99.90;;;;;;5090769;27;20251;-73
2023/06/17 06:24:03;;;;;;;10.07;6.50;;;18.50;99.90;;;;;;5120540;27;20051;-71
2023/06/17 06:26:29;;;;;;;11.70;6.88;;;18.60;99.90;;;;;;5104639;27;20565;-71
2023/06/17 06:28:54;;;;;;;9.32;6.32;;;18.70;99.90;;;;;;5085268;27;20057;-71
2023/06/17 06:31:20;;;;;;;14.20;6.53;;;18.80;99.90;;;;;;5110814;27;20038;-73
2023/06/17 06:33:47;;;;;;;10.80;6.75;;;18.90;99.90;;;;;;5069921;27;21415;-70
2023/06/17 06:36:12;;;;;;;12.10;6.97;;;18.90;99.90;;;;;;5105682;27;20054;-70
2023/06/17 06:38:38;;;;;;;9.70;6.80;;;19.00;99.90;;;;;;5075108;27;20405;-70
2023/06/17 06:41:04;;;;;;;10.32;6.85;;;19.00;99.90;;;;;;5103297;27;20515;-69
2023/06/17 06:43:30;;;;;;;8.50;6.13;;;19.10;99.90;;;;;;5102681;27;20525;-74
2023/06/17 06:45:55;;;;;;;10.05;6.57;;;19.20;99.90;;;;;;5098836;27;20054;-74
2023/06/17 06:48:21;;;;;;;8.50;6.40;;;19.20;99.90;;;;;;5101514;27;20051;-73
2023/06/17 06:50:47;;;;;;;10.52;6.75;;;19.50;99.90;;;;;;5099100;27;20039;-71
2023/06/17 06:53:12;;;;;;;12.30;7.05;;;19.30;99.90;;;;;;5068574;27;20782;-71
2023/06/17 06:55:38;;;;;;;10.73;6.72;;;19.30;99.90;;;;;;5119827;27;20043;-70
2023/06/17 06:58:04;;;;;;;11.63;7.18;;;19.30;99.90;;;;;;5085000;27;20058;-72
2023/06/17 07:00:30;;;;;;;13.05;6.75;;;19.40;99.90;;;;;;5104865;27;20047;-72
2023/06/17 07:02:56;;;;;;;12.90;7.35;;;19.40;99.90;;;;;;5092410;27;20042;-72
2023/06/17 07:05:24;;;;;;;10.93;7.10;;;19.50;99.90;;;;;;5106229;27;20046;-71
2023/06/17 07:07:50;;;;;;;14.75;7.18;;;19.50;99.90;;;;;;5092440;27;20514;-71
2023/06/17 07:10:16;;;;;;;9.43;6.93;;;19.60;99.90;;;;;;5106377;27;20039;-73
2023/06/17 07:12:41;;;;;;;12.23;7.22;;;19.80;99.90;;;;;;5108560;27;20064;-71
2023/06/17 07:15:07;;;;;;;11.95;6.32;;;20.00;99.90;;;;;;5106281;27;20126;-70
2023/06/17 07:17:33;;;;;;;11.35;6.50;;;20.10;99.90;;;;;;5076099;27;20055;-69
2023/06/17 07:19:59;;;;;;;9.57;6.13;;;20.20;99.90;;;;;;5085540;27;20046;-70
2023/06/17 07:22:25;;;;;;;10.50;6.70;;;20.40;99.90;;;;;;5104187;27;20110;-70
2023/06/17 07:24:51;;;;;;;11.38;7.32;;;20.60;99.90;;;;;;5108425;27;20557;-70
2023/06/17 07:27:16;;;;;;;12.98;6.55;;;20.90;99.90;;;;;;5075025;27;20043;-69
2023/06/17 07:29:44;;;;;;;8.50;6.95;;;21.20;99.90;;;;;;5107382;27;20490;-72
2023/06/17 07:32:11;;;;;;;10.20;5.93;;;21.50;99.90;;;;;;5088056;27;20050;-71
2023/06/17 07:34:41;;;;;;;9.98;5.80;;;21.60;99.90;;;;;;5079546;27;20660;-71
2023/06/17 07:37:12;;;;;;;9.48;5.90;;;21.70;99.90;;;;;;5110002;27;20065;-71
2023/06/17 07:39:46;;;;;;;;;;;21.90;99.90;;;;;;5094225;27;20058;-72
2023/06/17 07:42:16;;;;;;;8.45;5.95;;;21.90;99.90;;;;;;5081863;27;19920;-72
2023/06/17 07:44:43;;;;;;;10.98;6.57;;;21.80;99.90;;;;;;5079302;27;20047;-73
2023/06/17 07:47:09;;;;;;;13.02;6.45;;;21.80;99.90;;;;;;5074278;27;20097;-73
2023/06/17 07:49:44;;;;;;;11.80;5.63;;;21.90;99.90;;;;;;5107845;27;20058;-72
2023/06/17 07:52:15;;;;;;;11.32;6.60;;;21.90;99.90;;;;;;5077843;27;20049;-73
2023/06/17 07:54:41;;;;;;;9.38;6.30;;;22.10;99.90;;;;;;5109687;27;20050;-72
2023/06/17 07:57:07;;;;;;;8.48;5.55;;;22.10;99.90;;;;;;5077685;27;20048;-72
2023/06/17 07:59:35;;;;;;;11.55;5.97;;;22.10;99.90;;;;;;5089155;27;20039;-69
2023/06/17 08:02:01;;;;;;;9.88;6.30;;;22.10;99.90;;;;;;5125928;27;20035;-68
2023/06/17 08:04:27;;;;;;;9.90;6.00;;;22.00;99.90;;;;;;5078296;27;20051;-68
2023/06/17 08:06:52;;;;;;;11.73;6.00;;;22.20;99.90;;;;;;5112558;27;20359;-69
2023/06/17 08:09:18;;;;;;;10.50;5.03;;;22.20;99.90;;;;;;5109450;27;20066;-67
2023/06/17 08:11:47;;;;;;;10.02;6.22;;;22.40;99.90;;;;;;5093471;27;20153;-70
2023/06/17 08:14:13;;;;;;;11.52;5.80;;;22.60;99.90;;;;;;5081929;27;20389;-68
2023/06/17 08:16:45;;;;;;;12.82;5.90;;;22.90;99.90;;;;;;5086116;27;20757;-69
2023/06/17 08:19:14;;;;;;;12.27;5.70;;;23.10;99.90;;;;;;5092434;27;20043;-69
2023/06/17 08:21:42;;;;;;;8.32;5.43;;;23.40;99.90;;;;;;5101579;27;20046;-71
2023/06/17 08:24:27;;;;;;;11.90;6.45;;;23.60;99.90;;;;;;5110141;27;20071;-70
2023/06/17 08:26:53;;;;;;;11.50;5.65;;;23.60;99.90;;;;;;5115534;27;20126;-70
2023/06/17 08:29:40;;;;;;;10.18;5.65;;;23.70;99.90;;;;;;5110582;27;20130;-73
2023/06/17 08:32:19;;;;;;;9.73;5.63;;;23.90;99.90;;;;;;5118314;27;20512;-68
2023/06/17 08:34:47;;;;;;;9.35;5.68;;;24.00;99.90;;;;;;5116537;27;20047;-70
2023/06/17 08:37:15;;;;;;;12.32;6.65;;;24.10;99.90;;;;;;5071581;27;20062;-67
2023/06/17 08:39:42;;;;;;;10.25;6.35;;;24.10;99.90;;;;;;5075425;27;20053;-69
2023/06/17 08:42:11;;;;;;;7.57;5.05;;;24.20;99.90;;;;;;5078158;27;20069;-70
2023/06/17 08:44:41;;;;;;;7.78;5.00;;;24.40;99.90;;;;;;5072438;27;20104;-68
2023/06/17 08:47:17;;;;;;;11.10;5.43;;;24.50;99.90;;;;;;5106924;27;20496;-69
2023/06/17 08:49:46;;;;;;;10.05;5.65;;;24.40;99.90;;;;;;5137182;27;20046;-69
2023/06/17 08:52:26;;;;;;;8.15;5.55;;;24.40;99.90;;;;;;5090172;27;20134;-69
2023/06/17 08:54:53;;;;;;;9.77;4.80;;;24.70;99.90;;;;;;5083139;27;20050;-69
2023/06/17 08:57:20;;;;;;;8.55;4.97;;;24.90;99.90;;;;;;5114915;27;20036;-69
2023/06/17 08:59:46;;;;;;;11.52;6.28;;;24.90;99.90;;;;;;5100891;27;20051;-70
2023/06/17 09:02:14;;;;;;;8.80;5.78;;;25.10;99.70;;;;;;5077653;27;20050;-73
2023/06/17 09:04:40;;;;;;;8.65;5.38;;;25.30;99.50;;;;;;5100398;27;20505;-72
2023/06/17 09:07:09;;;;;;;7.85;5.70;;;25.50;99.20;;;;;;5085967;27;20050;-70
2023/06/17 09:09:35;;;;;;;8.75;5.20;;;25.70;99.00;;;;;;5105585;27;20040;-69
2023/06/17 09:12:05;;;;;;;11.88;5.65;;;25.80;98.50;;;;;;5108482;27;20414;-69
2023/06/17 09:14:32;;;;;;;9.63;5.80;;;25.90;97.80;;;;;;5105067;27;20082;-70
2023/06/17 09:16:58;;;;;;;11.25;5.53;;;26.00;97.90;;;;;;5092059;27;20042;-68
2023/06/17 09:19:24;;;;;;;10.63;5.28;;;26.10;97.50;;;;;;5106895;27;20432;-68
2023/06/17 09:21:50;;;;;;;9.40;4.70;;;26.20;97.30;;;;;;5091862;27;20047;-68
2023/06/17 09:24:29;;;;;;;11.63;5.75;;;26.40;97.10;;;;;;5077118;27;20054;-69
2023/06/17 09:26:55;;;;;;;9.20;5.10;;;26.80;96.50;;;;;;5105052;27;20050;-69
2023/06/17 09:29:21;;;;;;;7.55;5.18;;;27.00;96.30;;;;;;5110652;27;20043;-68
2023/06/17 09:31:51;;;;;;;8.25;5.60;;;27.20;95.90;;;;;;5090950;27;20459;-68
2023/06/17 09:34:17;;;;;;;9.57;5.32;;;27.20;95.60;;;;;;5110725;27;20053;-68
2023/06/17 09:36:44;;;;;;;6.70;5.05;;;27.20;95.40;;;;;;5106877;27;20144;-70
2023/06/17 09:39:13;;;;;;;7.50;5.38;;;27.20;95.20;;;;;;5114814;27;20502;-68
2023/06/17 09:41:42;;;;;;;7.85;5.30;;;27.40;95.20;;;;;;5113775;27;20457;-67
2023/06/17 09:44:08;;;;;;;7.85;5.53;;;27.40;94.70;;;;;;5115183;27;20162;-67
2023/06/17 09:46:36;;;;;;;7.07;4.57;;;27.10;94.60;;;;;;5096023;27;20547;-67
2023/06/17 09:49:21;;;;;;;7.90;5.15;;;27.00;94.60;;;;;;5118808;27;20046;-68
2023/06/17 09:51:48;;;;;;;8.73;5.00;;;26.90;94.40;;;;;;5114443;27;20142;-68
2023/06/17 09:54:15;;;;;;;11.02;5.35;;;26.90;94.50;;;;;;5099344;27;20062;-68
2023/06/17 09:56:43;;;;;;;7.97;5.03;;;26.90;94.40;;;;;;5094850;27;20051;-68
2023/06/17 09:59:10;;;;;;;8.15;5.03;;;27.00;94.30;;;;;;5090805;27;20059;-67
2023/06/17 10:01:39;;;;;;;9.43;5.07;;;27.10;94.10;;;;;;5108055;27;20034;-67
2023/06/17 10:04:07;;;;;;;7.32;4.45;;;27.30;94.00;;;;;;5108907;27;20043;-68
2023/06/17 10:06:37;;;;;;;8.65;5.18;;;27.40;93.80;;;;;;5107662;27;20134;-70
2023/06/17 10:09:08;;;;;;;8.10;5.05;;;27.50;93.70;;;;;;5104111;27;20075;-69
2023/06/17 10:11:35;;;;;;;9.18;4.82;;;27.60;93.50;;;;;;5107323;27;20130;-67
2023/06/17 10:14:30;;;;;;;9.85;5.78;;;27.70;93.40;;;;;;5078303;27;20141;-67
2023/06/17 10:16:57;;;;;;;9.85;5.13;;;27.90;92.90;;;;;;5110038;27;20047;-68
2023/06/17 10:19:27;;;;;;;8.18;5.20;;;28.10;93.10;;;;;;5088738;27;20046;-68
2023/06/17 10:21:56;;;;;;;9.40;5.28;;;28.30;92.60;;;;;;5105389;27;20081;-68
2023/06/17 10:24:23;;;;;;;8.90;5.32;;;28.20;92.30;;;;;;5106418;27;20051;-68
2023/06/17 10:27:01;;;;;;;10.25;5.47;;;28.10;92.20;;;;;;5090952;27;20039;-68
2023/06/17 10:29:27;;;;;;;11.75;6.00;;;28.30;92.00;;;;;;5109416;27;20742;-67
2023/06/17 10:31:53;;;;;;;11.18;5.93;;;28.50;92.00;;;;;;5085635;27;20214;-70
2023/06/17 10:34:22;;;;;;;9.70;5.30;;;28.50;91.80;;;;;;5086979;27;20060;-70
2023/06/17 10:36:58;;;;;;;8.27;5.45;;;28.60;91.40;;;;;;5105163;27;20039;-68
2023/06/17 10:39:23;;;;;;;8.90;5.45;;;28.80;91.20;;;;;;5086487;27;20043;-67
2023/06/17 10:41:50;;;;;;;9.63;5.50;;;28.70;91.30;;;;;;5101179;27;20608;-68
2023/06/17 10:44:35;;;;;;;9.38;5.60;;;28.40;91.30;;;;;;5104159;27;20490;-69
2023/06/17 10:47:02;;;;;;;7.85;5.50;;;28.50;91.00;;;;;;5105822;27;20039;-67
2023/06/17 10:49:41;;;;;;;10.13;5.28;;;28.70;91.20;;;;;;5107679;27;20039;-70
2023/06/17 10:52:16;;;;;;;8.85;5.13;;;28.90;90.50;;;;;;5086788;27;20053;-68
2023/06/17 10:54:54;;;;;;;8.40;5.40;;;29.00;90.40;;;;;;5086644;27;20050;-68
2023/06/17 10:57:31;;;;;;;9.05;5.72;;;29.10;89.30;;;;;;5105231;27;20050;-67
2023/06/17 11:00:08;;;;;;;7.97;5.10;;;29.00;89.40;;;;;;5105305;27;20157;-69
2023/06/17 11:02:38;;;;;;;10.75;5.10;;;28.60;90.30;;;;;;5105410;27;20119;-67
2023/06/17 11:05:06;;;;;;;8.63;5.22;;;28.50;90.60;;;;;;5106212;27;20469;-67
2023/06/17 11:07:32;;;;;;;8.63;5.50;;;28.40;90.60;;;;;;5105359;27;20047;-70
2023/06/17 11:09:58;;;;;;;7.47;4.78;;;28.50;90.80;;;;;;5123612;27;20575;-68
2023/06/17 11:12:24;;;;;;;6.90;5.05;;;28.80;90.70;;;;;;5084751;27;20607;-68
2023/06/17 11:14:50;;;;;;;7.85;4.82;;;29.00;90.40;;;;;;5103435;27;20059;-68
2023/06/17 11:17:19;;;;;;;9.63;5.15;;;28.90;90.10;;;;;;5114572;27;20087;-70
2023/06/17 11:19:45;;;;;;;8.50;5.00;;;28.90;90.00;;;;;;5086251;27;20316;-68
2023/06/17 11:22:11;;;;;;;9.88;4.75;;;28.70;90.10;;;;;;5088274;27;20047;-67
2023/06/17 11:24:37;;;;;;;12.90;5.40;;;28.80;90.30;;;;;;5084297;27;20100;-68
2023/06/17 11:27:10;;;;;;;9.15;5.13;;;28.90;90.10;;;;;;5084680;27;20042;-69
2023/06/17 11:29:39;;;;;;;8.95;4.75;;;29.20;90.00;;;;;;5104407;27;20150;-69
2023/06/17 11:32:12;;;;;;;8.20;4.80;;;29.20;89.50;;;;;;5103608;27;20511;-68
2023/06/17 11:34:40;;;;;;;8.85;5.15;;;29.10;89.50;;;;;;5095726;27;20137;-70
2023/06/17 11:37:10;;;;;;;9.57;5.30;;;29.10;90.00;;;;;;5088490;27;20063;-69
2023/06/17 11:39:37;;;;;;;6.72;5.13;;;29.10;90.00;;;;;;5107581;27;20043;-69
2023/06/17 11:42:03;;;;;;;7.80;4.97;;;29.60;89.50;;;;;;5085510;27;20568;-71
2023/06/17 11:44:33;;;;;;;7.30;4.90;;;29.60;88.60;;;;;;5091305;27;20043;-71
2023/06/17 11:47:03;;;;;;;7.65;4.47;;;29.70;88.50;;;;;;5111410;27;20118;-70
2023/06/17 11:49:29;;;;;;;7.18;5.00;;;29.70;88.40;;;;;;5106451;27;20047;-69
2023/06/17 11:52:05;;;;;;;7.68;4.93;;;29.80;88.40;;;;;;5096057;27;20094;-70
2023/06/17 11:54:50;;;;;;;7.25;4.78;;;29.50;88.20;;;;;;5094292;27;20527;-69
2023/06/17 11:57:25;;;;;;;10.05;4.82;;;29.50;87.70;;;;;;5114285;27;20518;-70
2023/06/17 11:59:57;;;;;;;5.87;4.00;;;29.30;88.20;;;;;;5094956;27;20130;-69
2023/06/17 12:02:29;;;;;;;9.27;4.50;;;29.50;88.20;;;;;;5095233;27;20489;-66
2023/06/17 12:05:01;;;;;;;7.70;4.13;;;29.30;87.40;;;;;;5104247;27;20382;-66
2023/06/17 12:07:27;;;;;;;12.05;4.70;;;29.50;88.20;;;;;;5109759;27;20054;-65
2023/06/17 12:09:54;;;;;;;8.65;4.68;;;29.60;87.90;;;;;;5111852;27;20372;-67
2023/06/17 12:12:34;;;;;;;7.55;4.60;;;30.00;87.60;;;;;;5105865;27;20149;-70
2023/06/17 12:15:09;;;;;;;7.85;4.85;;;30.10;86.10;;;;;;5094951;27;20078;-69
2023/06/17 12:17:41;;;;;;;9.23;5.18;;;30.20;86.20;;;;;;5114135;27;20042;-67
2023/06/17 12:20:18;;;;;;;10.10;4.70;;;30.10;86.00;;;;;;5100347;27;20099;-67
2023/06/17 12:22:45;;;;;;;10.48;5.82;;;30.00;86.50;;;;;;5115309;27;20119;-69
2023/06/17 12:25:11;;;;;;;10.05;5.55;;;29.90;86.20;;;;;;5115451;27;20031;-67
2023/06/17 12:27:37;;;;;;;9.27;4.70;;;30.10;86.00;;;;;;5114748;27;20136;-67
2023/06/17 12:30:05;;;;;;;7.18;5.32;;;30.40;85.70;;;;;;5117450;27;20054;-68
2023/06/17 12:32:31;;;;;;;9.40;5.57;;;30.70;85.30;;;;;;5084633;27;20050;-67
2023/06/17 12:34:58;;;;;;;7.95;5.38;;;31.00;84.30;;;;;;5097842;27;20043;-68
2023/06/17 12:37:29;;;;;;;9.52;5.95;;;31.20;84.20;;;;;;5098564;27;20123;-69
2023/06/17 12:40:03;;;;;;;8.55;5.35;;;31.20;83.10;;;;;;5102507;27;20169;-67
2023/06/17 12:42:29;;;;;;;11.57;6.43;;;31.00;83.20;;;;;;5099892;27;20063;-67
2023/06/17 12:44:55;;;;;;;10.30;5.95;;;31.20;83.60;;;;;;5113382;27;20079;-67